Bandirma, Band?rma Airport (LTBG)

NameBand?rma Airport
CityBandirma
CountryTurkey
ICAOLTBG
IATABDM
Altitude52 m
CoordinatesGoogle Map
Live Air TrafficLiveATC.net
METARLTBG 251650Z 33006KT CAVOK 08/00 Q1011 NOSIG RMK RWY18 35010KT
2019-03-25 16:50:00 Wind: Northwest (330°) 3.09 m/s - Visibility: > 10000 m - Weather: CAVOK - Temperature: 8 °C - Dew point: 0 °C - Humidity: 57.4% - Pressure: 1011 hPa

Sorry, no flights used the airport in this database.